Latest Weather Observations for Mount Buller

IDV60801

Issued at 7:35 pm EDT Wednesday 26 November 2014 (issued every 30 minutes, with the page automatically refreshed every 10 minutes)

About weather observations | Map of weather stations | Latest weather observations for VIC | Other Formats
Station Details ID: 083024 Name: MOUNT BULLER Lat: -37.15 Lon: 146.44 Height: 1707.0 m
Data from the previous 72 hours. | See also: Recent months at Mount Buller
Date/Time
EDT
Temp
°C
App
Temp
°C
Dew
Point
Rel
Hum
%
Delta-T
°C
Wind Press
QNH
hPa
Press
MSL
hPa
Rain
since 9 am
mm
Dir
 
Spd
km/h
Gust
km/h
Spd
kts
Gust
kts
26/07:30pm 6.5 1.7 5.5 93 0.5 SSW 20 26 11 14 - - 0.0
26/07:00pm 6.4 0.7 5.0 91 0.7 SW 24 28 13 15 - - 0.0
26/06:30pm 7.5 3.6 5.5 87 1.0 SSW 15 24 8 13 - - 0.0
26/06:00pm 7.8 3.6 5.9 88 1.0 SW 17 24 9 13 - - 0.0
26/05:30pm 7.8 2.9 5.1 83 1.3 SW 20 26 11 14 - - 0.0
26/05:00pm 8.0 3.9 6.1 88 1.0 SSW 17 26 9 14 - - 0.0
26/04:30pm 7.8 3.3 5.9 88 1.0 SW 19 24 10 13 - - 0.0
26/04:00pm 8.1 4.4 6.2 88 1.0 SSW 15 22 8 12 - - 0.0
26/03:30pm 8.5 5.1 5.8 83 1.4 SW 13 32 7 17 - - 0.0
26/03:00pm 9.5 6.0 5.5 76 2.0 WSW 13 20 7 11 - - 0.0
26/02:30pm 9.6 4.9 5.2 74 2.2 WSW 19 26 10 14 - - 0.0
26/02:00pm 8.5 4.4 4.3 75 2.0 SSW 15 22 8 12 - - 0.0
26/01:30pm 9.0 5.3 4.6 74 2.2 SSW 13 24 7 13 - - 0.0
26/01:00pm 8.5 4.5 3.1 69 2.6 SSW 13 22 7 12 - - 0.0
26/12:30pm 8.2 4.3 3.5 72 2.2 SSW 13 22 7 12 - - 0.0
26/12:00pm 8.5 5.0 1.4 61 3.2 SSW 9 17 5 9 - - 0.0
26/11:30am 7.1 4.6 3.5 78 1.7 SW 6 13 3 7 - - 0.0
26/11:00am 8.1 5.4 2.8 69 2.5 NNW 6 11 3 6 - - 0.0
26/10:30am 7.1 2.7 0.1 61 3.1 W 13 19 7 10 - - 0.0
26/10:00am 6.9 2.1 -2.5 51 3.9 W 13 20 7 11 - - 0.0
26/09:30am 5.5 0.5 -1.4 61 2.9 WSW 15 20 8 11 - - 0.0
26/09:00am 4.4 -1.2 1.4 81 1.3 W 20 28 11 15 - - 0.2
26/08:30am 4.1 -2.7 1.1 81 1.3 W 26 32 14 17 - - 0.2
26/08:00am 4.1 -3.5 0.8 79 1.4 W 30 41 16 22 - - 0.2
26/07:30am 4.2 -3.9 0.7 78 1.5 W 33 43 18 23 - - 0.2
26/07:00am 3.9 -3.7 0.6 79 1.4 W 30 41 16 22 - - 0.2
26/06:30am 3.4 -4.2 0.6 82 1.2 W 30 37 16 20 - - 0.2
26/06:00am 3.3 -4.3 0.5 82 1.2 W 30 39 16 21 - - 0.2
26/05:30am 3.3 -3.9 0.9 84 1.0 W 28 37 15 20 - - 0.2
26/05:00am 3.4 -4.2 0.8 83 1.1 W 30 37 16 20 - - 0.2
26/04:30am 3.4 -3.8 0.8 83 1.1 WNW 28 39 15 21 - - 0.2
26/04:00am 4.0 -2.8 0.7 79 1.4 WNW 26 35 14 19 - - 0.2
26/03:30am 4.3 -3.9 0.5 76 1.6 WNW 33 46 18 25 - - 0.2
26/03:13am 4.5 -3.1 0.5 75 1.7 WNW 30 48 16 26 - - 0.2
26/03:00am 4.3 -2.5 0.5 76 1.6 WNW 26 37 14 20 - - 0.2
26/02:30am 4.5 -2.7 0.5 75 1.7 WNW 28 43 15 23 - - 0.2
26/02:00am 4.3 -3.9 0.5 76 1.6 WNW 33 41 18 22 - - 0.2
26/01:30am 4.3 -3.3 0.5 76 1.6 WNW 30 39 16 21 - - 0.2
26/01:00am 3.5 -2.6 0.4 80 1.3 W 22 30 12 16 - - 0.2
26/12:30am 3.3 -2.1 1.0 85 1.0 W 19 28 10 15 - - 0.2
26/12:00am 2.8 -2.3 0.9 87 0.8 W 17 20 9 11 - - 0.2
 
Date/Time
EDT
Temp
°C
App
Temp
°C
Dew
Point
Rel
Hum
%
Delta-T
°C
Wind Press
QNH
hPa
Press
MSL
hPa
Rain
since 9 am
mm
Dir
 
Spd
km/h
Gust
km/h
Spd
kts
Gust
kts
25/11:30pm 3.0 -2.5 0.9 86 0.9 W 19 20 10 11 - - 0.2
25/11:00pm 2.8 -2.7 0.9 87 0.8 W 19 22 10 12 - - 0.2
25/10:30pm 3.3 -1.7 1.2 86 0.9 W 17 22 9 12 - - 0.2
25/10:00pm 3.4 -1.6 1.6 88 0.8 W 17 20 9 11 - - 0.2
25/09:30pm 3.6 -1.7 1.8 88 0.8 W 19 24 10 13 - - 0.2
25/09:00pm 3.8 -0.8 1.8 87 0.9 W 15 19 8 10 - - 0.2
25/08:30pm 3.8 -0.4 1.7 86 0.9 W 13 17 7 9 - - 0.2
25/08:00pm 4.3 -0.3 1.5 82 1.2 W 15 19 8 10 - - 0.2
25/07:30pm 5.4 0.4 1.5 76 1.7 W 17 26 9 14 - - 0.2
25/07:00pm 5.2 0.6 1.3 76 1.7 W 15 22 8 12 - - 0.2
25/06:30pm 6.2 0.6 1.3 71 2.2 W 20 32 11 17 - - 0.2
25/06:00pm 6.1 -0.7 1.1 70 2.2 W 26 35 14 19 - - 0.2
25/05:30pm 6.2 0.2 1.3 71 2.2 W 22 30 12 16 - - 0.2
25/05:00pm 6.5 1.2 2.0 73 2.0 W 19 28 10 15 - - 0.2
25/04:30pm 5.7 1.1 1.6 75 1.8 W 15 24 8 13 - - 0.2
25/04:00pm 6.3 1.1 2.2 75 1.9 WSW 19 32 10 17 - - 0.2
25/03:30pm 4.9 0.0 2.1 82 1.3 WSW 17 24 9 13 - - 0.2
25/03:00pm 4.9 0.0 2.3 83 1.2 W 17 26 9 14 - - 0.2
25/02:30pm 5.0 0.5 4.4 96 0.3 SW 17 28 9 15 - - 0.2
25/02:00pm 4.1 -0.1 3.8 98 0.1 W 15 24 8 13 - - 0.2
25/01:30pm 5.1 0.7 5.0 99 0.0 W 17 26 9 14 - - 0.2
25/01:00pm 4.8 1.1 4.7 99 0.0 SW 13 26 7 14 - - 0.2
25/12:30pm 2.9 -1.9 2.8 99 0.0 SSW 17 32 9 17 - - 0.2
25/12:00pm 3.2 -2.1 3.2 100 0.0 WSW 20 30 11 16 - - 0.2
25/11:30am 2.1 -3.4 2.1 100 0.0 WSW 20 33 11 18 - - 0.2
25/11:00am 2.0 -3.5 2.0 100 0.0 WSW 20 35 11 19 - - 0.2
25/10:30am 1.0 -4.1 1.0 100 0.0 WSW 17 28 9 15 - - 0.2
25/10:00am 1.2 -4.4 1.2 100 0.0 WSW 20 37 11 20 - - 0.0
25/09:30am 0.9 -5.5 0.9 100 0.0 WSW 24 37 13 20 - - 0.0
25/09:00am 0.1 -5.7 0.1 100 0.0 SW 20 35 11 19 - - 14.6
25/08:30am -0.1 -6.7 -0.2 99 0.0 SSW 24 39 13 21 - - 14.6
25/08:00am -0.3 -6.9 -0.4 99 0.0 SSW 24 35 13 19 - - 14.6
25/07:30am -0.7 -7.7 -0.8 99 0.0 SSW 26 39 14 21 - - 14.6
25/07:00am -0.7 -7.0 -0.8 99 0.0 SW 22 32 12 17 - - 14.6
25/06:30am -0.8 -6.5 -0.9 99 0.0 SW 19 28 10 15 - - 14.6
25/06:00am -1.0 -6.7 -1.1 99 0.0 SSW 19 30 10 16 - - 14.6
25/05:30am -1.2 -7.9 -1.3 99 0.0 SSW 24 37 13 20 - - 14.6
25/05:00am -0.9 -6.8 -0.9 100 0.0 SSW 20 37 11 20 - - 14.6
25/04:30am -1.0 -8.1 -1.0 100 0.0 SW 26 39 14 21 - - 14.6
25/04:00am -0.8 -6.7 -0.8 100 0.0 SSW 20 39 11 21 - - 14.6
25/03:30am -0.2 -5.8 -0.2 100 0.0 SSW 19 35 10 19 - - 14.6
25/03:00am -0.3 -6.1 -0.3 100 0.0 SSW 20 33 11 18 - - 14.6
25/02:30am -0.1 -5.9 -0.1 100 0.0 SSW 20 32 11 17 - - 14.6
25/02:00am 0.4 -4.8 0.4 100 0.0 SW 17 24 9 13 - - 14.6
25/01:30am 0.6 -5.1 0.5 99 0.0 WSW 20 30 11 16 - - 14.6
25/01:00am 2.1 -4.1 2.0 99 0.0 WSW 24 35 13 19 - - 14.6
25/12:30am 3.4 -1.6 3.4 100 0.0 WSW 19 28 10 15 - - 14.6
25/12:00am 4.1 -1.8 4.1 100 0.0 W 24 32 13 17 - - 14.6
 
Date/Time
EDT
Temp
°C
App
Temp
°C
Dew
Point
Rel
Hum
%
Delta-T
°C
Wind Press
QNH
hPa
Press
MSL
hPa
Rain
since 9 am
mm
Dir
 
Spd
km/h
Gust
km/h
Spd
kts
Gust
kts
24/11:30pm 5.2 -0.4 5.2 100 0.0 WSW 24 37 13 20 - - 14.6
24/11:00pm 5.3 0.1 5.3 100 0.0 WSW 22 32 12 17 - - 14.6
24/10:30pm 6.4 1.0 6.4 100 0.0 SW 24 37 13 20 - - 14.6
24/10:00pm 6.5 1.9 6.5 100 0.0 WSW 20 28 11 15 - - 14.6
24/09:30pm 6.8 1.9 6.8 100 0.0 SW 22 33 12 18 - - 14.6
24/09:00pm 7.2 1.2 7.1 99 0.1 SW 28 37 15 20 - - 14.6
24/08:39pm 9.5 3.7 9.5 100 0.0 W 30 50 16 27 - - 12.0
24/08:30pm 9.6 6.7 9.6 100 0.0 WNW 15 24 8 13 - - 10.4
24/08:00pm 9.8 5.6 9.8 100 0.0 W 22 28 12 15 - - 9.6
24/07:37pm 10.4 5.2 10.4 100 0.0 W 28 46 15 25 - - 9.6
24/07:30pm 10.5 6.1 10.5 100 0.0 W 24 39 13 21 - - 9.4
24/07:16pm 10.5 5.4 10.5 100 0.0 WNW 28 48 15 26 - - 9.4
24/07:00pm 10.5 7.5 10.5 100 0.0 WNW 17 37 9 20 - - 9.4
24/06:38pm 11.1 6.1 11.1 100 0.0 WNW 28 50 15 27 - - 8.6
24/06:30pm 10.7 7.3 10.7 100 0.0 WNW 19 44 10 24 - - 8.6
24/06:00pm 8.9 4.5 8.8 99 0.1 NW 22 43 12 23 - - 8.6
24/05:30pm 9.4 3.2 8.0 91 0.7 NNW 30 57 16 31 - - 8.6
24/05:03pm 11.1 4.5 8.5 84 1.4 NNW 33 63 18 34 - - 8.6
24/05:02pm 10.9 5.2 8.5 85 1.3 NNW 28 44 15 24 - - 8.6
24/05:00pm 11.4 3.6 8.1 80 1.8 WNW 39 98 21 53 - - 8.6
24/04:54pm 10.0 1.9 9.9 99 0.1 WNW 43 95 23 51 - - 8.4
24/04:45pm 8.9 -0.9 8.8 99 0.1 W 50 72 27 39 - - 7.2
24/04:40pm 11.3 3.0 11.3 100 0.0 NW 46 85 25 46 - - 5.2
24/04:36pm 11.4 2.0 11.4 100 0.0 N 52 119 28 64 - - 1.6
24/04:30pm 11.6 3.4 11.6 100 0.0 N 46 72 25 39 - - 0.8
24/04:18pm 11.6 3.9 11.6 100 0.0 N 43 61 23 33 - - 0.0
24/04:00pm 11.5 3.6 11.3 99 0.1 NW 44 76 24 41 - - 0.0
24/03:57pm 11.5 3.7 11.3 99 0.1 NNW 43 56 23 30 - - 0.0
24/03:30pm 11.3 2.1 11.0 98 0.2 N 50 74 27 40 - - 0.0
24/03:04pm 11.4 3.2 10.5 94 0.5 N 44 67 24 36 - - 0.0
24/03:00pm 11.1 3.2 10.8 98 0.2 N 43 59 23 32 - - 0.0
24/02:30pm 11.3 3.4 10.8 97 0.3 N 43 61 23 33 - - 0.0
24/02:00pm 11.7 3.4 9.9 89 1.0 N 44 65 24 35 - - 0.0
24/01:31pm 12.2 3.7 9.2 82 1.7 N 44 65 24 35 - - 0.0
24/01:30pm 12.1 4.0 10.0 87 1.2 N 43 59 23 32 - - 0.0
24/01:13pm 12.4 4.9 9.4 82 1.7 N 39 59 21 32 - - 0.0
24/01:00pm 12.2 4.9 10.1 87 1.2 N 39 50 21 27 - - 0.0
24/12:30pm 12.7 5.4 10.1 84 1.5 N 39 57 21 31 - - 0.0
24/12:00pm 13.1 5.9 10.5 84 1.5 N 39 57 21 31 - - 0.0
24/11:32am 12.4 4.4 10.5 88 1.1 N 43 61 23 33 - - 0.0
24/11:30am 12.2 4.3 10.8 91 0.8 N 43 56 23 30 - - 0.0
24/11:00am 11.9 2.6 10.5 91 0.8 N 50 70 27 38 - - 0.0
24/10:30am 11.5 2.9 10.2 92 0.7 N 46 67 25 36 - - 0.0
24/10:00am 11.4 2.3 10.0 91 0.8 N 48 72 26 39 - - 0.0
24/09:30am 12.0 3.2 9.7 86 1.3 N 46 65 25 35 - - 0.0
24/09:00am 12.2 2.1 8.9 80 1.8 N 52 74 28 40 - - 0.0
24/08:30am 12.8 1.6 7.7 71 2.7 N 56 80 30 43 - - -
24/08:19am 13.1 0.4 6.9 66 3.3 N 63 85 34 46 - - -
24/08:17am 13.3 0.3 7.1 66 3.3 N 65 80 35 43 - - -
24/08:01am 13.8 4.7 6.7 62 3.8 N 44 63 24 34 - - -
24/08:00am 13.7 4.6 6.6 62 3.8 N 44 59 24 32 - - -
24/07:30am 13.8 2.6 5.7 58 4.2 N 54 80 29 43 - - -
24/07:00am 13.6 2.7 5.5 58 4.2 N 52 72 28 39 - - -
24/06:30am 13.9 4.2 5.8 58 4.2 N 46 69 25 37 - - -
24/06:06am 13.6 4.5 6.0 60 4.0 N 43 61 23 33 - - -
24/06:00am 13.6 4.5 6.0 60 4.0 N 43 59 23 32 - - -
24/05:45am 13.3 4.7 6.4 63 3.6 N 41 59 22 32 - - -
24/05:30am 13.3 5.0 6.2 62 3.7 N 39 50 21 27 - - -
24/05:00am 12.8 4.8 5.7 62 3.7 N 37 50 20 27 - - -
24/04:30am 11.8 4.6 5.9 67 3.0 N 33 41 18 22 - - -
24/04:00am 12.3 5.2 5.5 63 3.5 N 32 41 17 22 - - -
24/03:36am 12.6 4.8 4.8 59 4.0 N 35 54 19 29 - - -
24/03:30am 12.3 5.2 5.5 63 3.5 N 32 43 17 23 - - -
24/03:00am 11.9 5.9 7.0 72 2.6 N 28 41 15 22 - - 0.0
24/02:30am 12.8 6.4 5.0 59 4.0 N 28 35 15 19 - - -
24/02:00am 13.3 7.5 4.2 54 4.6 N 24 37 13 20 - - -
24/01:30am 13.2 7.5 4.9 57 4.2 N 24 32 13 17 - - -
24/01:00am 12.6 8.5 6.2 65 3.3 NNW 17 24 9 13 - - -
24/12:30am 13.0 8.3 5.9 62 3.7 NNW 20 32 11 17 - - -
24/12:00am 14.8 10.3 2.4 43 6.1 WNW 15 28 8 15 - - -
 
Date/Time
EDT
Temp
°C
App
Temp
°C
Dew
Point
Rel
Hum
%
Delta-T
°C
Wind Press
QNH
hPa
Press
MSL
hPa
Rain
since 9 am
mm
Dir
 
Spd
km/h
Gust
km/h
Spd
kts
Gust
kts
23/11:30pm 15.1 10.5 1.3 39 6.6 WNW 15 33 8 18 - - -
23/11:00pm 15.7 11.1 1.8 39 6.8 WNW 15 28 8 15 - - -
23/10:30pm 13.8 10.5 6.4 61 3.9 NW 13 19 7 10 - - -
23/10:00pm 13.9 10.2 6.5 61 3.9 NNW 15 24 8 13 - - -
23/09:30pm 14.3 10.0 6.9 61 4.0 NNW 19 33 10 18 - - -
23/09:00pm 14.3 9.9 7.4 63 3.7 N 20 35 11 19 - - 0.0
23/08:30pm 14.2 10.4 7.7 65 3.5 NNW 17 32 9 17 - - -
23/08:00pm 14.1 12.5 7.9 66 3.4 NNW 6 13 3 7 - - -

Other Formats:

Comma delimited format used in spreadsheet applications
http://www.bom.gov.au/fwo/IDV60801/IDV60801.94894.axf

JavaScript Object Notation format (JSON) in row-major order
http://www.bom.gov.au/fwo/IDV60801/IDV60801.94894.json